createdAt,value
2022-10-13T00:01:13.378Z,19.08
2022-10-13T00:04:00.663Z,16.92
2022-10-13T00:06:50.183Z,18.50
2022-10-13T00:09:38.582Z,22.42
2022-10-13T00:12:05.975Z,21.90
2022-10-13T00:14:33.341Z,20.92
2022-10-13T00:17:00.635Z,22.27
2022-10-13T00:19:27.993Z,23.35
2022-10-13T00:21:55.142Z,18.77
2022-10-13T00:24:22.363Z,18.35
2022-10-13T00:26:52.285Z,20.55
2022-10-13T00:29:19.751Z,27.48
2022-10-13T00:31:46.972Z,20.23
2022-10-13T00:34:14.151Z,23.30
2022-10-13T00:36:41.326Z,20.08
2022-10-13T00:39:08.510Z,20.38
2022-10-13T00:41:36.468Z,21.35
2022-10-13T00:45:00.445Z,19.23
2022-10-13T00:47:44.879Z,19.58
2022-10-13T00:50:23.462Z,20.52
2022-10-13T00:52:59.278Z,25.45
2022-10-13T00:55:36.364Z,19.77
2022-10-13T00:58:10.368Z,18.58
2022-10-13T01:00:38.400Z,18.70
2022-10-13T01:03:27.308Z,22.55
2022-10-13T01:06:21.187Z,19.02
2022-10-13T01:09:03.262Z,21.30
2022-10-13T01:11:57.675Z,19.23
2022-10-13T01:14:56.375Z,23.52
2022-10-13T01:18:26.598Z,18.27
2022-10-13T01:21:47.670Z,22.25
2022-10-13T01:24:52.719Z,21.77
2022-10-13T01:28:04.573Z,16.60
2022-10-13T01:30:45.999Z,19.60
2022-10-13T01:34:01.209Z,19.70
2022-10-13T01:39:54.268Z,22.55
2022-10-13T01:43:02.990Z,20.98
2022-10-13T01:48:19.405Z,18.52
2022-10-13T01:50:53.847Z,18.80
2022-10-13T01:53:22.316Z,18.08
2022-10-13T01:56:00.393Z,18.85
2022-10-13T01:58:35.433Z,21.33
2022-10-13T02:01:38.743Z,20.23
2022-10-13T02:04:21.989Z,15.90
2022-10-13T02:07:15.271Z,20.05
2022-10-13T02:10:19.940Z,16.88
2022-10-13T02:13:04.613Z,20.48
2022-10-13T02:15:51.280Z,18.67
2022-10-13T02:18:28.242Z,17.83
2022-10-13T02:20:56.082Z,16.73
2022-10-13T02:23:24.491Z,18.27
2022-10-13T02:25:51.685Z,18.48
2022-10-13T02:28:20.047Z,19.02
2022-10-13T02:30:50.507Z,18.15
2022-10-13T02:33:20.782Z,22.40
2022-10-13T02:35:50.783Z,15.95
2022-10-13T02:38:20.649Z,19.30
2022-10-13T02:40:47.924Z,22.25
2022-10-13T02:43:15.176Z,17.42
2022-10-13T02:45:42.553Z,18.00
2022-10-13T02:48:09.975Z,17.35
2022-10-13T02:50:37.390Z,20.13
2022-10-13T02:53:04.667Z,17.17
2022-10-13T02:55:31.961Z,20.05
2022-10-13T02:57:59.393Z,20.50
2022-10-13T03:00:27.053Z,20.35
2022-10-13T03:02:54.277Z,18.90
2022-10-13T03:05:21.705Z,17.23
2022-10-13T03:07:49.830Z,19.55
2022-10-13T03:10:17.288Z,18.33
2022-10-13T03:12:45.021Z,19.40
2022-10-13T03:15:12.797Z,16.60
2022-10-13T03:17:40.034Z,19.38
2022-10-13T03:20:08.792Z,17.33
2022-10-13T03:22:35.966Z,17.42
2022-10-13T03:25:03.942Z,17.75
2022-10-13T03:27:31.370Z,16.58
2022-10-13T03:29:58.535Z,22.73
2022-10-13T03:32:25.855Z,17.95
2022-10-13T03:34:53.009Z,20.05
2022-10-13T03:37:20.180Z,17.40
2022-10-13T03:39:48.912Z,16.45
2022-10-13T03:42:17.820Z,18.60
2022-10-13T03:44:45.384Z,17.48
2022-10-13T03:47:12.671Z,18.15
2022-10-13T03:49:39.913Z,21.23
2022-10-13T03:52:07.331Z,18.23
2022-10-13T03:54:34.595Z,16.67
2022-10-13T03:57:03.589Z,19.45
2022-10-13T03:59:36.435Z,19.05
2022-10-13T04:02:04.575Z,20.42
2022-10-13T04:04:31.911Z,18.40
2022-10-13T04:06:59.710Z,16.13
2022-10-13T04:09:46.865Z,19.95
2022-10-13T04:12:34.015Z,17.58
2022-10-13T04:15:12.402Z,17.35
2022-10-13T04:17:40.526Z,18.38
2022-10-13T04:20:09.959Z,18.88
2022-10-13T04:22:37.725Z,17.15
2022-10-13T04:25:08.146Z,20.20
2022-10-13T04:27:39.515Z,19.33
2022-10-13T04:30:13.491Z,23.15
2022-10-13T04:32:44.945Z,23.92
2022-10-13T04:35:16.725Z,21.35
2022-10-13T04:37:47.240Z,17.98
2022-10-13T04:40:15.472Z,19.02
2022-10-13T04:42:45.915Z,24.38
2022-10-13T04:45:16.944Z,16.83
2022-10-13T04:47:55.362Z,17.20
2022-10-13T04:50:43.873Z,17.83
2022-10-13T04:53:14.240Z,16.58
2022-10-13T04:55:48.309Z,17.75
2022-10-13T04:58:16.892Z,15.43
2022-10-13T05:00:47.724Z,16.92
2022-10-13T05:03:18.737Z,18.33
2022-10-13T05:05:47.946Z,18.08
2022-10-13T05:08:18.403Z,19.40
2022-10-13T05:11:02.191Z,22.45
2022-10-13T05:13:31.438Z,19.27
2022-10-13T05:16:10.952Z,19.60
2022-10-13T05:18:41.758Z,17.98
2022-10-13T05:21:24.699Z,23.85
2022-10-13T05:23:57.654Z,17.05
2022-10-13T05:26:32.011Z,18.60
2022-10-13T05:29:04.528Z,27.38
2022-10-13T05:31:36.973Z,18.92
2022-10-13T05:34:07.689Z,17.55
2022-10-13T05:36:41.183Z,21.60
2022-10-13T05:39:14.982Z,17.67
2022-10-13T05:41:49.057Z,17.15
2022-10-13T05:44:27.093Z,18.10
2022-10-13T05:47:15.672Z,21.90
2022-10-13T05:49:48.549Z,18.10
2022-10-13T05:52:23.322Z,18.95
2022-10-13T05:55:08.305Z,17.33
2022-10-13T05:57:52.389Z,22.63
2022-10-13T06:00:42.781Z,17.95
2022-10-13T06:03:30.926Z,19.25
2022-10-13T06:06:03.274Z,21.92
2022-10-13T06:08:38.983Z,21.58
2022-10-13T06:13:55.034Z,21.13
2022-10-13T06:16:45.021Z,20.38
2022-10-13T06:19:25.155Z,21.13
2022-10-13T06:22:03.895Z,22.88
2022-10-13T06:24:46.685Z,20.13
2022-10-13T06:27:36.736Z,21.30
2022-10-13T06:30:20.849Z,22.38
2022-10-13T06:33:08.024Z,20.88
2022-10-13T06:35:55.894Z,17.38
2022-10-13T06:38:43.292Z,21.05
2022-10-13T06:41:21.552Z,19.63
2022-10-13T06:43:58.871Z,22.90
2022-10-13T06:46:42.166Z,25.80
2022-10-13T06:49:29.431Z,21.38
2022-10-13T06:52:10.242Z,16.38
2022-10-13T06:54:53.965Z,19.52
2022-10-13T06:57:41.310Z,24.92
2022-10-13T07:00:28.489Z,17.92
2022-10-13T07:03:11.850Z,20.52
2022-10-13T07:06:05.701Z,25.85
2022-10-13T07:08:52.898Z,23.25
2022-10-13T07:11:35.921Z,21.60
2022-10-13T07:17:10.870Z,21.00
2022-10-13T07:19:58.672Z,21.13
2022-10-13T07:22:47.885Z,23.42
2022-10-13T07:25:35.613Z,18.77
2022-10-13T07:28:25.855Z,24.27
2022-10-13T07:31:21.151Z,17.52
2022-10-13T07:34:08.557Z,25.45
2022-10-13T07:36:55.808Z,20.63
2022-10-13T07:39:40.856Z,20.30
2022-10-13T07:42:23.789Z,21.27
2022-10-13T07:45:11.172Z,26.20
2022-10-13T07:47:58.327Z,20.05
2022-10-13T07:50:45.571Z,21.90
2022-10-13T07:53:33.015Z,20.73
2022-10-13T07:56:21.359Z,25.80
2022-10-13T07:59:08.975Z,26.05
2022-10-13T08:04:42.877Z,20.88
2022-10-13T08:07:30.191Z,21.83
2022-10-13T08:10:18.508Z,22.52
2022-10-13T08:13:05.703Z,19.55
2022-10-13T08:15:52.907Z,20.00
2022-10-13T08:18:40.111Z,24.08
2022-10-13T08:24:37.497Z,18.52
2022-10-13T08:27:32.805Z,21.30
2022-10-13T08:30:29.530Z,18.23
2022-10-13T08:33:16.893Z,24.77
2022-10-13T08:36:04.658Z,20.08
2022-10-13T08:38:53.518Z,23.00
2022-10-13T08:41:44.163Z,21.38
2022-10-13T08:48:19.864Z,18.80
2022-10-13T08:51:08.251Z,21.75
2022-10-13T08:53:57.290Z,19.95
2022-10-13T08:56:36.585Z,22.25
2022-10-13T08:59:05.084Z,19.65
2022-10-13T09:01:37.088Z,19.20
2022-10-13T09:04:26.048Z,19.38
2022-10-13T09:07:18.034Z,20.02
2022-10-13T09:09:51.880Z,22.80
2022-10-13T09:12:26.300Z,20.05
2022-10-13T09:15:12.548Z,20.30
2022-10-13T09:17:42.318Z,20.73
2022-10-13T09:20:27.666Z,20.48
2022-10-13T09:23:23.091Z,18.50
2022-10-13T09:25:52.839Z,19.80
2022-10-13T09:28:32.274Z,19.50
2022-10-13T09:31:14.117Z,17.25
2022-10-13T09:33:42.053Z,20.05
2022-10-13T09:36:18.562Z,22.95
2022-10-13T09:39:17.146Z,19.73
2022-10-13T09:41:47.048Z,18.27
2022-10-13T09:44:31.978Z,17.77
2022-10-13T09:47:04.111Z,19.08
2022-10-13T09:49:43.976Z,19.52
2022-10-13T09:52:14.173Z,21.27
2022-10-13T09:54:44.743Z,18.52
2022-10-13T09:57:48.271Z,25.60
2022-10-13T10:00:28.038Z,20.98
2022-10-13T10:03:32.231Z,18.55
2022-10-13T10:09:05.538Z,18.15
2022-10-13T10:11:47.713Z,19.15
2022-10-13T10:14:32.434Z,22.58
2022-10-13T10:17:44.833Z,22.15
2022-10-13T10:21:12.267Z,19.63
2022-10-13T10:23:54.118Z,18.88
2022-10-13T10:26:53.134Z,19.98
2022-10-13T10:30:20.390Z,19.17
2022-10-13T10:33:12.150Z,21.38
2022-10-13T10:36:07.262Z,23.10
2022-10-13T10:39:08.621Z,21.23
2022-10-13T10:41:58.474Z,20.08
2022-10-13T10:44:38.423Z,17.17
2022-10-13T10:47:30.109Z,21.98
2022-10-13T10:50:06.084Z,21.30
2022-10-13T10:52:44.017Z,23.08
2022-10-13T10:56:05.570Z,16.83
2022-10-13T10:59:13.255Z,20.17
2022-10-13T11:02:08.773Z,18.70
2022-10-13T11:04:48.197Z,23.05
2022-10-13T11:07:38.542Z,19.38
2022-10-13T11:10:17.554Z,20.02
2022-10-13T11:12:53.485Z,19.88
2022-10-13T11:15:40.689Z,18.73
2022-10-13T11:19:26.591Z,21.50
2022-10-13T11:21:59.909Z,18.63
2022-10-13T11:24:42.202Z,24.10
2022-10-13T11:27:14.507Z,21.45
2022-10-13T11:29:48.957Z,20.13
2022-10-13T11:32:30.503Z,19.63
2022-10-13T11:35:06.873Z,20.20
2022-10-13T11:38:07.402Z,22.77
2022-10-13T11:41:25.852Z,20.98
2022-10-13T11:44:01.053Z,19.08
2022-10-13T11:47:08.262Z,19.23
2022-10-13T11:50:24.319Z,19.42
2022-10-13T11:53:54.574Z,17.50
2022-10-13T11:56:46.111Z,20.92
2022-10-13T11:59:34.950Z,19.15
2022-10-13T12:02:20.105Z,21.17
2022-10-13T12:05:32.728Z,20.67
2022-10-13T12:08:07.568Z,20.67
2022-10-13T12:10:40.292Z,21.65
2022-10-13T12:13:31.070Z,21.83
2022-10-13T12:16:09.289Z,23.38
2022-10-13T12:18:42.811Z,22.63
2022-10-13T12:21:22.650Z,21.48
2022-10-13T12:24:10.049Z,22.95
2022-10-13T12:26:45.275Z,20.83
2022-10-13T12:29:37.180Z,20.35
2022-10-13T12:32:30.818Z,19.92
2022-10-13T12:35:24.683Z,20.15
2022-10-13T12:37:55.951Z,22.88
2022-10-13T12:40:29.057Z,28.17
2022-10-13T12:43:00.866Z,19.98
2022-10-13T12:45:35.574Z,21.00
2022-10-13T12:48:06.126Z,20.80
2022-10-13T12:50:38.456Z,19.27
2022-10-13T12:53:26.967Z,22.23
2022-10-13T12:56:01.997Z,18.77
2022-10-13T12:58:43.782Z,17.02
2022-10-13T13:01:34.684Z,19.33
2022-10-13T13:04:21.726Z,17.27
2022-10-13T13:07:04.920Z,23.45
2022-10-13T13:09:39.212Z,23.67
2022-10-13T13:12:11.298Z,22.80
2022-10-13T13:14:55.412Z,17.45
2022-10-13T13:17:56.533Z,18.85
2022-10-13T13:20:37.834Z,19.73
2022-10-13T13:23:09.311Z,19.42
2022-10-13T13:25:42.859Z,19.65
2022-10-13T13:28:20.431Z,24.95
2022-10-13T13:30:55.644Z,22.85
2022-10-13T13:33:28.167Z,20.05
2022-10-13T13:36:26.915Z,21.77
2022-10-13T13:38:58.256Z,23.85
2022-10-13T13:41:32.621Z,22.58
2022-10-13T13:44:19.848Z,20.88
2022-10-13T13:47:28.445Z,19.58
2022-10-13T13:50:03.791Z,25.08
2022-10-13T13:52:51.211Z,19.73
2022-10-13T13:55:38.444Z,21.67
2022-10-13T13:58:25.805Z,20.63
2022-10-13T14:01:01.607Z,21.60
2022-10-13T14:03:41.624Z,20.02
2022-10-13T14:06:25.917Z,23.55
2022-10-13T14:09:13.267Z,19.55
2022-10-13T14:12:00.585Z,26.58
2022-10-13T14:14:43.844Z,20.52
2022-10-13T14:17:32.701Z,19.88
2022-10-13T14:20:19.861Z,19.95
2022-10-13T14:23:01.775Z,23.65
2022-10-13T14:25:41.994Z,21.30
2022-10-13T14:28:30.220Z,27.83
2022-10-13T14:31:13.897Z,24.38
2022-10-13T14:34:01.292Z,19.23
2022-10-13T14:36:51.674Z,19.40
2022-10-13T14:39:41.263Z,22.67
2022-10-13T14:42:23.165Z,20.38
2022-10-13T14:45:08.507Z,21.60
2022-10-13T14:47:55.691Z,20.30
2022-10-13T14:50:37.914Z,21.05
2022-10-13T14:53:26.845Z,21.92
2022-10-13T14:56:27.586Z,21.23
2022-10-13T14:59:13.736Z,22.10
2022-10-13T15:02:02.194Z,23.33
2022-10-13T15:04:49.456Z,18.92
2022-10-13T15:07:40.854Z,22.85
2022-10-13T15:10:23.152Z,22.08
2022-10-13T15:13:10.303Z,21.08
2022-10-13T15:16:03.849Z,24.17
2022-10-13T15:18:51.472Z,20.77
2022-10-13T15:21:31.569Z,22.02
2022-10-13T15:24:18.676Z,21.17
2022-10-13T15:27:12.650Z,20.92
2022-10-13T15:29:59.840Z,21.10
2022-10-13T15:32:50.477Z,25.52
2022-10-13T15:35:37.627Z,31.80
2022-10-13T15:38:25.825Z,27.45
2022-10-13T15:41:13.589Z,22.38
2022-10-13T15:44:00.783Z,25.90
2022-10-13T15:49:58.157Z,24.92
2022-10-13T15:51:55.354Z,25.60
2022-10-13T15:52:45.992Z,21.70
2022-10-13T15:55:33.455Z,21.88
2022-10-13T15:58:21.087Z,26.92
2022-10-13T16:01:10.657Z,27.77
2022-10-13T16:03:56.594Z,23.30
2022-10-13T16:06:43.760Z,23.30
2022-10-13T16:09:31.593Z,21.77
2022-10-13T16:12:18.940Z,22.90
2022-10-13T16:15:09.472Z,24.27
2022-10-13T16:17:56.640Z,23.55
2022-10-13T16:20:45.371Z,28.95
2022-10-13T16:23:32.728Z,23.60
2022-10-13T16:26:20.091Z,22.88
2022-10-13T16:29:07.310Z,22.08
2022-10-13T16:31:56.326Z,26.88
2022-10-13T16:34:43.601Z,26.85
2022-10-13T16:37:31.303Z,22.33
2022-10-13T16:40:18.585Z,24.55
2022-10-13T16:43:07.159Z,21.13
2022-10-13T16:46:01.211Z,23.25
2022-10-13T16:48:49.696Z,20.85
2022-10-13T16:51:36.973Z,21.65
2022-10-13T16:54:25.626Z,21.77
2022-10-13T16:57:12.844Z,22.02
2022-10-13T17:00:00.099Z,29.00
2022-10-13T17:02:51.619Z,21.25
2022-10-13T17:05:38.923Z,25.83
2022-10-13T17:08:26.475Z,23.13
2022-10-13T17:14:11.000Z,23.75
2022-10-13T17:16:38.503Z,22.90
2022-10-13T17:19:06.746Z,24.13
2022-10-13T17:21:36.911Z,24.45
2022-10-13T17:24:06.330Z,27.73
2022-10-13T17:26:33.781Z,28.13
2022-10-13T17:29:01.945Z,24.92
2022-10-13T17:31:29.441Z,25.20
2022-10-13T17:33:56.691Z,26.60
2022-10-13T17:36:31.815Z,28.60
2022-10-13T17:39:09.574Z,30.60
2022-10-13T17:41:40.926Z,26.90
2022-10-13T17:44:08.256Z,28.15
2022-10-13T17:46:37.995Z,27.50
2022-10-13T17:49:11.629Z,26.75
2022-10-13T17:51:43.950Z,26.48
2022-10-13T17:54:16.171Z,24.67
2022-10-13T17:56:45.237Z,26.45
2022-10-13T17:59:15.571Z,28.75
2022-10-13T18:01:45.916Z,27.48
2022-10-13T18:04:19.131Z,26.27
2022-10-13T18:06:47.181Z,29.75
2022-10-13T18:09:20.685Z,28.85
2022-10-13T18:11:51.369Z,27.30
2022-10-13T18:14:24.930Z,27.73
2022-10-13T18:16:54.058Z,30.25
2022-10-13T18:19:22.648Z,28.52
2022-10-13T18:21:52.760Z,31.23
2022-10-13T18:24:20.540Z,35.08
2022-10-13T18:26:48.618Z,32.63
2022-10-13T18:29:16.510Z,29.02
2022-10-13T18:31:46.108Z,30.60
2022-10-13T18:34:19.951Z,35.03
2022-10-13T18:36:53.949Z,33.88
2022-10-13T18:39:27.971Z,31.50
2022-10-13T18:41:57.599Z,34.80
2022-10-13T18:44:34.715Z,34.08
2022-10-13T18:47:03.033Z,32.63
2022-10-13T18:49:33.247Z,37.38
2022-10-13T18:52:04.685Z,39.17
2022-10-13T18:54:32.435Z,34.60
2022-10-13T18:56:59.858Z,39.25
2022-10-13T18:59:27.175Z,38.50
2022-10-13T19:01:54.491Z,36.25
2022-10-13T19:04:22.364Z,38.17
2022-10-13T19:06:51.490Z,35.05
2022-10-13T19:09:19.516Z,36.20
2022-10-13T19:11:46.798Z,38.15
2022-10-13T19:14:16.640Z,37.45
2022-10-13T19:16:44.430Z,39.08
2022-10-13T19:19:12.616Z,40.30
2022-10-13T19:21:40.912Z,36.92
2022-10-13T19:24:10.396Z,33.03
2022-10-13T19:26:38.385Z,39.25
2022-10-13T19:29:14.007Z,36.78
2022-10-13T19:31:43.188Z,37.00
2022-10-13T19:34:13.642Z,37.75
2022-10-13T19:36:45.970Z,37.05
2022-10-13T19:39:24.138Z,39.45
2022-10-13T19:41:55.560Z,39.58
2022-10-13T19:44:24.723Z,40.38
2022-10-13T19:46:54.120Z,40.58
2022-10-13T19:49:26.347Z,41.10
2022-10-13T19:51:54.236Z,39.60
2022-10-13T19:54:22.475Z,40.25
2022-10-13T19:56:51.917Z,42.95
2022-10-13T19:59:20.148Z,42.47
2022-10-13T20:01:50.171Z,42.00
2022-10-13T20:04:20.593Z,43.28
2022-10-13T20:07:07.931Z,40.70
2022-10-13T20:09:35.406Z,42.38
2022-10-13T20:12:02.577Z,43.50
2022-10-13T20:14:34.313Z,41.65
2022-10-13T20:17:02.190Z,44.35
2022-10-13T20:19:30.485Z,41.20
2022-10-13T20:21:58.390Z,43.20
2022-10-13T20:24:25.837Z,43.55
2022-10-13T20:26:53.450Z,44.33
2022-10-13T20:29:23.464Z,48.28
2022-10-13T20:31:50.851Z,46.17
2022-10-13T20:34:18.059Z,42.55
2022-10-13T20:36:45.280Z,46.45
2022-10-13T20:39:12.599Z,46.33
2022-10-13T20:41:39.909Z,46.65
2022-10-13T20:44:07.056Z,43.42
2022-10-13T20:46:34.748Z,46.47
2022-10-13T20:49:11.440Z,49.15
2022-10-13T20:51:43.762Z,46.05
2022-10-13T20:54:15.117Z,45.63
2022-10-13T20:56:43.242Z,46.25
2022-10-13T20:59:14.786Z,48.38
2022-10-13T21:01:42.959Z,50.30
2022-10-13T21:04:11.496Z,48.03
2022-10-13T21:06:42.280Z,53.88
2022-10-13T21:09:11.663Z,53.38
2022-10-13T21:11:42.799Z,49.50
2022-10-13T21:14:10.488Z,52.72
2022-10-13T21:16:38.085Z,49.50
2022-10-13T21:19:12.283Z,52.13
2022-10-13T21:21:41.424Z,49.15
2022-10-13T21:24:10.895Z,47.50
2022-10-13T21:26:39.767Z,49.03
2022-10-13T21:29:13.967Z,57.33
2022-10-13T21:31:42.051Z,49.22
2022-10-13T21:34:11.434Z,53.70
2022-10-13T21:36:44.235Z,54.83
2022-10-13T21:39:19.213Z,50.78
2022-10-13T21:41:47.005Z,54.97
2022-10-13T21:44:14.866Z,54.47
2022-10-13T21:46:42.870Z,52.83
2022-10-13T21:49:12.212Z,50.25
2022-10-13T21:51:41.235Z,51.30
2022-10-13T21:54:15.014Z,50.13
2022-10-13T21:56:43.075Z,52.95
2022-10-13T21:59:30.809Z,52.10
2022-10-13T22:02:00.757Z,49.15
2022-10-13T22:04:30.531Z,56.50
2022-10-13T22:07:06.264Z,58.47
2022-10-13T22:09:34.353Z,51.50
2022-10-13T22:12:03.934Z,56.50
2022-10-13T22:14:31.215Z,58.08
2022-10-13T22:17:04.980Z,55.00
2022-10-13T22:19:35.353Z,62.58
2022-10-13T22:22:03.828Z,55.22
2022-10-13T22:24:31.139Z,55.20
2022-10-13T22:27:10.917Z,55.70
2022-10-13T22:29:39.076Z,51.42
2022-10-13T22:32:06.596Z,55.42
2022-10-13T22:34:33.909Z,66.65
2022-10-13T22:37:10.378Z,59.30
2022-10-13T22:39:37.550Z,54.40
2022-10-13T22:42:12.651Z,54.58
2022-10-13T22:44:39.920Z,51.50
2022-10-13T22:47:15.438Z,53.08
2022-10-13T22:49:45.095Z,54.42
2022-10-13T22:52:15.044Z,56.47
2022-10-13T22:54:46.177Z,55.67
2022-10-13T22:57:25.387Z,49.05
2022-10-13T22:59:57.943Z,56.28
2022-10-13T23:02:26.432Z,55.45
2022-10-13T23:04:55.639Z,56.35
2022-10-13T23:07:26.240Z,53.30
2022-10-13T23:09:55.406Z,50.25
2022-10-13T23:12:23.745Z,55.92
2022-10-13T23:14:54.264Z,52.95
2022-10-13T23:17:29.057Z,60.08
2022-10-13T23:19:57.558Z,58.35
2022-10-13T23:22:33.251Z,55.40
2022-10-13T23:25:00.740Z,50.80
2022-10-13T23:27:38.622Z,55.80
2022-10-13T23:30:12.826Z,51.47
2022-10-13T23:32:46.088Z,52.95
2022-10-13T23:35:17.810Z,53.08
2022-10-13T23:37:45.333Z,52.55
2022-10-13T23:40:12.988Z,54.65
2022-10-13T23:42:40.150Z,54.53
2022-10-13T23:45:08.249Z,49.65
2022-10-13T23:47:35.510Z,54.25
2022-10-13T23:50:03.296Z,47.72
2022-10-13T23:52:30.459Z,53.00
2022-10-13T23:54:57.596Z,59.85
2022-10-13T23:57:30.143Z,49.28
2022-10-13T23:59:57.272Z,44.05
